Time;durP1;ratioP1;P1;durP2;ratioP2;P2;SDS_P1;SDS_P2;PMS_P1;PMS_P2;Temp;Humidity;BMP_temperature;BMP_pressure;BME280_temperature;BME280_humidity;BME280_pressure;Samples;Min_cycle;Max_cycle;Signal;HPM_P1;HPM_P2
2022/10/26 00:02:40;;;;;;;0.03;0.03;;;;;;;8.04;100.00;101576.72;10503436;28;20024;-78
2022/10/26 00:07:40;;;;;;;0.03;0.03;;;;;;;8.09;100.00;101582.50;10504780;28;20031;-78
2022/10/26 00:12:41;;;;;;;0.10;0.10;;;;;;;8.43;100.00;101590.38;10530105;28;20548;-78
2022/10/26 00:17:41;;;;;;;0.10;0.10;;;;;;;8.61;100.00;101584.41;10511489;28;20028;-78
2022/10/26 00:22:41;;;;;;;0.10;0.10;;;;;;;8.78;100.00;101588.28;10501853;28;20383;-79
2022/10/26 00:27:42;;;;;;;0.10;0.10;;;;;;;8.91;100.00;101592.56;10502592;28;20070;-78
2022/10/26 00:32:42;;;;;;;0.10;0.10;;;;;;;9.03;100.00;101586.22;10502751;28;20087;-79
2022/10/26 00:37:42;;;;;;;0.03;0.03;;;;;;;9.13;100.00;101588.91;10501753;28;20535;-78
2022/10/26 00:42:43;;;;;;;0.10;0.10;;;;;;;9.21;100.00;101591.78;10502263;28;20468;-78
2022/10/26 00:47:47;;;;;;;0.10;0.10;;;;;;;9.25;100.00;101579.88;10496490;28;20140;-78
2022/10/26 00:52:50;;;;;;;0.00;0.00;;;;;;;9.29;100.00;101587.47;10508028;28;20024;-78
2022/10/26 00:57:52;;;;;;;0.00;0.00;;;;;;;9.30;100.00;101575.03;10501064;28;20433;-77
2022/10/26 01:02:56;;;;;;;0.10;0.10;;;;;;;9.28;100.00;101582.31;10496660;28;20027;-77
2022/10/26 01:07:56;;;;;;;0.10;0.10;;;;;;;9.20;100.00;101575.00;10496100;28;20036;-78
2022/10/26 01:12:58;;;;;;;0.10;0.10;;;;;;;9.12;100.00;101584.59;10495642;28;20028;-78
2022/10/26 01:18:12;;;;;;;0.10;0.10;;;;;;;9.00;100.00;101571.38;10527401;28;20023;-78
2022/10/26 01:23:24;;;;;;;0.10;0.10;;;;;;;8.92;100.00;101573.00;10505553;28;20012;-78
2022/10/26 01:28:36;;;;;;;0.10;0.10;;;;;;;8.81;100.00;101568.59;10495951;28;20024;-78
2022/10/26 01:33:45;;;;;;;0.00;0.00;;;;;;;8.72;100.00;101566.72;10476948;28;20059;-78
2022/10/26 01:38:59;;;;;;;0.00;0.00;;;;;;;8.66;100.00;101572.53;10527449;28;20088;-77
2022/10/26 01:44:08;;;;;;;0.10;0.10;;;;;;;8.55;100.00;101558.34;10536760;28;20054;-77
2022/10/26 01:49:11;;;;;;;0.10;0.10;;;;;;;8.51;100.00;101564.88;10535823;28;20467;-77
2022/10/26 01:54:11;;;;;;;0.00;0.00;;;;;;;8.46;100.00;101577.69;10496141;28;20024;-78
2022/10/26 01:59:15;;;;;;;0.10;0.10;;;;;;;8.44;100.00;101573.50;10484508;28;20039;-78
2022/10/26 02:04:38;;;;;;;0.10;0.10;;;;;;;8.48;100.00;101558.97;10510844;28;20024;-77
2022/10/26 02:10:01;;;;;;;0.00;0.00;;;;;;;8.52;100.00;101565.72;10520658;28;20028;-78
2022/10/26 02:15:13;;;;;;;0.00;0.00;;;;;;;8.51;100.00;101569.34;10534955;28;20024;-77
2022/10/26 02:20:22;;;;;;;0.10;0.10;;;;;;;8.47;100.00;101562.63;10509961;28;20472;-78
2022/10/26 02:25:26;;;;;;;0.00;0.00;;;;;;;8.41;100.00;101553.34;10512410;28;20012;-78
2022/10/26 02:30:27;;;;;;;0.05;0.05;;;;;;;8.35;100.00;101557.31;10492271;28;20024;-77
2022/10/26 02:35:34;;;;;;;0.00;0.00;;;;;;;8.30;100.00;101553.34;10517283;28;21397;-77
2022/10/26 02:40:36;;;;;;;0.10;0.10;;;;;;;8.24;100.00;101553.88;10526899;28;20023;-78
2022/10/26 02:45:43;;;;;;;0.00;0.00;;;;;;;8.17;100.00;101556.16;10514791;28;20067;-77
2022/10/26 02:50:55;;;;;;;0.00;0.00;;;;;;;8.14;100.00;101549.31;10486526;28;20020;-78
2022/10/26 02:55:58;;;;;;;0.00;0.00;;;;;;;8.11;100.00;101546.88;10521166;28;20020;-78
2022/10/26 03:00:59;;;;;;;0.00;0.00;;;;;;;8.06;100.00;101556.22;10520043;28;20128;-78
2022/10/26 03:05:59;;;;;;;0.10;0.10;;;;;;;8.05;100.00;101552.69;10495645;28;20024;-78
2022/10/26 03:10:59;;;;;;;0.00;0.00;;;;;;;8.02;100.00;101547.66;10495786;28;20035;-77
2022/10/26 03:16:00;;;;;;;0.00;0.00;;;;;;;8.00;100.00;101548.72;10502605;28;20021;-77
2022/10/26 03:21:00;;;;;;;0.00;0.00;;;;;;;7.94;100.00;101550.06;10515821;28;20024;-78
2022/10/26 03:26:00;;;;;;;0.10;0.10;;;;;;;7.91;100.00;101550.31;10499648;28;20028;-77
2022/10/26 03:31:01;;;;;;;0.00;0.00;;;;;;;7.89;100.00;101552.28;10513355;28;20039;-77
2022/10/26 03:36:01;;;;;;;0.00;0.00;;;;;;;7.90;100.00;101540.69;10530219;28;20023;-79
2022/10/26 03:41:01;;;;;;;0.10;0.10;;;;;;;7.90;100.00;101543.34;10520849;28;20024;-79
2022/10/26 03:46:01;;;;;;;0.10;0.10;;;;;;;7.86;100.00;101542.75;10506439;28;20021;-79
2022/10/26 03:51:02;;;;;;;0.00;0.00;;;;;;;7.83;100.00;101532.41;10506097;28;20177;-78
2022/10/26 03:56:02;;;;;;;0.03;0.03;;;;;;;7.82;100.00;101537.81;10510708;28;20020;-79
2022/10/26 04:01:03;;;;;;;0.10;0.10;;;;;;;7.84;100.00;101534.06;10515567;28;20104;-80
2022/10/26 04:06:03;;;;;;;0.10;0.10;;;;;;;7.90;100.00;101530.06;10504369;28;20185;-79
2022/10/26 04:11:04;;;;;;;0.00;0.00;;;;;;;7.86;100.00;101539.25;10522892;28;20428;-79
2022/10/26 04:16:04;;;;;;;0.00;0.00;;;;;;;7.96;100.00;101536.69;10524521;28;20059;-79
2022/10/26 04:21:07;;;;;;;0.00;0.00;;;;;;;8.03;100.00;101529.91;10514483;28;20075;-78
2022/10/26 04:26:08;;;;;;;0.10;0.10;;;;;;;8.04;100.00;101523.66;10521734;28;20435;-79
2022/10/26 04:31:08;;;;;;;0.10;0.10;;;;;;;7.98;100.00;101529.47;10504785;28;20024;-79
2022/10/26 04:36:08;;;;;;;0.00;0.00;;;;;;;7.87;100.00;101527.69;10501352;28;20024;-79
2022/10/26 04:41:09;;;;;;;0.00;0.00;;;;;;;7.83;100.00;101526.25;10511190;28;20479;-79
2022/10/26 04:46:12;;;;;;;0.00;0.00;;;;;;;7.72;100.00;101530.59;10535036;28;20012;-78
2022/10/26 04:51:12;;;;;;;0.03;0.03;;;;;;;7.66;100.00;101525.78;10516052;28;20730;-78
2022/10/26 04:56:12;;;;;;;0.10;0.10;;;;;;;7.41;100.00;101521.59;10519139;28;20016;-79
2022/10/26 05:01:13;;;;;;;0.00;0.00;;;;;;;7.16;100.00;101525.34;10527926;28;20107;-78
2022/10/26 05:06:13;;;;;;;0.10;0.10;;;;;;;7.09;100.00;101532.06;10498282;28;20020;-78
2022/10/26 05:11:13;;;;;;;0.00;0.00;;;;;;;7.06;100.00;101527.00;10527436;28;20490;-78
2022/10/26 05:16:15;;;;;;;0.00;0.00;;;;;;;7.00;100.00;101520.38;10528087;28;20027;-79
2022/10/26 05:21:19;;;;;;;0.00;0.00;;;;;;;6.92;100.00;101522.81;10500166;28;20020;-78
2022/10/26 05:26:23;;;;;;;0.00;0.00;;;;;;;6.74;100.00;101514.44;10525144;28;20366;-78
2022/10/26 05:31:23;;;;;;;0.00;0.00;;;;;;;6.59;100.00;101512.97;10515964;28;20087;-78
2022/10/26 05:36:24;;;;;;;0.00;0.00;;;;;;;6.59;100.00;101523.56;10513750;28;20072;-79
2022/10/26 05:41:24;;;;;;;0.00;0.00;;;;;;;6.59;100.00;101528.84;10524128;28;20047;-78
2022/10/26 05:46:24;;;;;;;0.00;0.00;;;;;;;6.49;100.00;101519.94;10530187;28;20425;-79
2022/10/26 05:51:25;;;;;;;0.10;0.10;;;;;;;6.42;100.00;101522.19;10527838;28;20391;-79
2022/10/26 05:56:37;;;;;;;0.03;0.03;;;;;;;6.34;100.00;101527.19;10529013;28;20524;-79
2022/10/26 06:02:01;;;;;;;0.00;0.00;;;;;;;6.31;100.00;101536.22;10513747;28;20035;-78
2022/10/26 06:07:02;;;;;;;;;;;;;;;6.19;100.00;101523.91;10505314;28;20024;-78
2022/10/26 06:12:02;;;;;;;0.00;0.00;;;;;;;6.21;100.00;101524.63;10500800;28;19919;-78
2022/10/26 06:17:12;;;;;;;0.00;0.00;;;;;;;6.23;100.00;101533.31;10501869;28;20131;-78
2022/10/26 06:22:36;;;;;;;0.00;0.00;;;;;;;6.23;100.00;101535.97;10516227;28;20031;-78
2022/10/26 06:28:04;;;;;;;0.00;0.00;;;;;;;6.20;100.00;101540.63;10503691;28;20151;-79
2022/10/26 06:33:05;;;;;;;0.00;0.00;;;;;;;6.21;100.00;101539.66;10517224;28;20062;-78
2022/10/26 06:38:20;;;;;;;0.00;0.00;;;;;;;6.25;100.00;101544.59;10518993;28;20046;-78
2022/10/26 06:43:26;;;;;;;0.00;0.00;;;;;;;6.41;100.00;101554.06;10509989;28;20052;-78
2022/10/26 06:48:29;;;;;;;0.00;0.00;;;;;;;6.51;100.00;101552.41;10494475;28;20399;-78
2022/10/26 06:53:46;;;;;;;0.10;0.10;;;;;;;6.74;100.00;101559.44;10515720;28;20384;-78
2022/10/26 06:58:48;;;;;;;0.10;0.10;;;;;;;7.07;100.00;101559.63;10514857;28;20024;-78
2022/10/26 07:03:48;;;;;;;0.00;0.00;;;;;;;7.18;100.00;101560.50;10516180;28;20462;-78
2022/10/26 07:08:49;;;;;;;0.00;0.00;;;;;;;7.32;100.00;101556.78;10502832;28;20047;-78
2022/10/26 07:13:50;;;;;;;0.10;0.10;;;;;;;7.61;100.00;101570.38;10515725;28;20506;-78
2022/10/26 07:18:50;;;;;;;0.05;0.05;;;;;;;7.77;100.00;101577.13;10519481;28;20028;-78
2022/10/26 07:23:51;;;;;;;0.00;0.00;;;;;;;7.97;100.00;101568.44;10512118;28;20383;-78
2022/10/26 07:28:52;;;;;;;0.00;0.00;;;;;;;8.31;100.00;101579.75;10527045;28;20019;-78
2022/10/26 07:33:53;;;;;;;0.00;0.00;;;;;;;8.66;100.00;101585.81;10505532;28;20009;-78
2022/10/26 07:38:53;;;;;;;0.00;0.00;;;;;;;9.70;100.00;101582.19;10526416;28;20102;-78
2022/10/26 07:43:54;;;;;;;0.00;0.00;;;;;;;11.41;100.00;101575.47;10526863;28;20099;-79
2022/10/26 07:48:54;;;;;;;0.10;0.10;;;;;;;12.49;100.00;101585.41;10534321;28;20023;-79
2022/10/26 07:53:54;;;;;;;0.10;0.10;;;;;;;13.35;100.00;101588.25;10497391;28;20019;-79
2022/10/26 07:58:55;;;;;;;0.10;0.10;;;;;;;13.86;100.00;101579.41;10528582;28;20349;-79
2022/10/26 08:03:55;;;;;;;0.08;0.08;;;;;;;14.22;100.00;101583.53;10507880;28;20156;-80
2022/10/26 08:08:55;;;;;;;0.10;0.10;;;;;;;14.72;100.00;101587.16;10516878;28;20021;-80
2022/10/26 08:13:56;;;;;;;0.00;0.00;;;;;;;14.89;100.00;101580.75;10527732;28;20072;-80
2022/10/26 08:18:56;;;;;;;0.10;0.10;;;;;;;14.74;100.00;101595.84;10542802;28;20032;-80
2022/10/26 08:23:56;;;;;;;0.10;0.10;;;;;;;14.92;100.00;101593.84;10527963;28;20035;-79
2022/10/26 08:28:57;;;;;;;0.10;0.10;;;;;;;14.93;100.00;101595.50;10547145;28;20343;-80
2022/10/26 08:33:58;;;;;;;0.10;0.10;;;;;;;14.76;100.00;101585.78;10506884;28;20511;-80
2022/10/26 08:38:58;;;;;;;0.03;0.03;;;;;;;14.78;100.00;101581.09;10508705;28;20398;-80
2022/10/26 08:44:06;;;;;;;0.00;0.00;;;;;;;14.60;100.00;101585.78;10536193;28;20048;-80
2022/10/26 08:49:23;;;;;;;0.10;0.10;;;;;;;14.58;100.00;101569.03;10535650;28;20035;-80
2022/10/26 08:54:36;;;;;;;0.10;0.10;;;;;;;14.36;100.00;101557.91;10487395;28;20008;-80
2022/10/26 08:59:42;;;;;;;;;;;;;;;14.46;100.00;101555.09;10522063;28;20040;-80
2022/10/26 09:04:44;;;;;;;0.10;0.10;;;;;;;14.57;100.00;101551.25;10545328;28;20303;-79
2022/10/26 09:10:14;;;;;;;0.10;0.10;;;;;;;14.49;100.00;101550.22;10528890;28;20051;-79
2022/10/26 09:15:39;;;;;;;0.00;0.00;;;;;;;14.38;100.00;101541.69;10515566;28;20035;-80
2022/10/26 09:20:45;;;;;;;0.10;0.10;;;;;;;14.20;100.00;101549.88;10511935;28;20425;-80
2022/10/26 09:26:13;;;;;;;0.10;0.10;;;;;;;14.18;100.00;101562.59;10503930;28;20093;-80
2022/10/26 09:31:15;;;;;;;0.00;0.00;;;;;;;14.18;100.00;101549.19;10525862;28;20040;-80
2022/10/26 09:36:21;;;;;;;0.10;0.10;;;;;;;14.24;100.00;101557.41;10546452;28;20012;-80
2022/10/26 09:41:46;;;;;;;0.10;0.10;;;;;;;14.27;100.00;101562.44;10540491;28;20126;-79
2022/10/26 09:47:11;;;;;;;0.10;0.10;;;;;;;14.02;100.00;101566.94;10530914;28;20023;-79
2022/10/26 09:52:12;;;;;;;0.10;0.10;;;;;;;14.19;100.00;101565.09;10526154;28;20435;-80
2022/10/26 09:57:17;;;;;;;0.00;0.00;;;;;;;14.10;100.00;101559.91;10502679;28;20111;-80
2022/10/26 10:02:43;;;;;;;0.10;0.10;;;;;;;14.04;100.00;101562.22;10543862;28;20085;-80
2022/10/26 10:07:43;;;;;;;0.10;0.10;;;;;;;14.08;100.00;101553.84;10539182;28;20020;-80
2022/10/26 10:12:45;;;;;;;0.10;0.10;;;;;;;14.34;100.00;101562.63;10502046;28;20460;-80
2022/10/26 10:17:54;;;;;;;0.10;0.10;;;;;;;14.36;100.00;101570.50;10488467;28;20024;-80
2022/10/26 10:23:00;;;;;;;0.10;0.10;;;;;;;14.36;100.00;101576.69;10499241;28;20067;-79
2022/10/26 10:28:01;;;;;;;0.00;0.00;;;;;;;14.40;100.00;101574.53;10512543;28;20379;-80
2022/10/26 10:33:09;;;;;;;0.10;0.10;;;;;;;14.45;100.00;101572.16;10495704;28;20026;-80
2022/10/26 10:38:16;;;;;;;0.00;0.00;;;;;;;14.42;100.00;101570.66;10528292;28;20024;-80
2022/10/26 10:43:16;;;;;;;0.10;0.10;;;;;;;14.45;100.00;101569.47;10539013;28;20391;-80
2022/10/26 10:48:22;;;;;;;0.10;0.10;;;;;;;14.48;100.00;101563.78;10524426;28;20139;-80
2022/10/26 10:53:34;;;;;;;0.10;0.10;;;;;;;14.63;100.00;101564.00;10516660;28;20480;-80
2022/10/26 10:58:52;;;;;;;0.10;0.10;;;;;;;14.79;100.00;101565.84;10500044;28;20032;-80
2022/10/26 11:04:22;;;;;;;0.10;0.10;;;;;;;14.86;100.00;101569.50;10500588;28;20096;-80
2022/10/26 11:09:27;;;;;;;0.00;0.00;;;;;;;14.86;100.00;101551.56;10452932;28;20039;-79
2022/10/26 11:14:39;;;;;;;0.10;0.10;;;;;;;14.92;100.00;101552.75;10499866;28;20151;-79
2022/10/26 11:20:04;;;;;;;0.10;0.10;;;;;;;15.03;100.00;101562.28;10480984;28;20021;-80
2022/10/26 11:25:15;;;;;;;0.10;0.10;;;;;;;15.13;100.00;101558.41;10498549;28;20031;-79
2022/10/26 11:30:26;;;;;;;0.10;0.10;;;;;;;15.34;100.00;101563.22;10505604;28;20054;-80
2022/10/26 11:35:46;;;;;;;0.00;0.00;;;;;;;15.56;100.00;101574.22;10522865;28;20050;-80
2022/10/26 11:40:55;;;;;;;0.10;0.10;;;;;;;15.61;100.00;101569.16;10540693;28;20016;-80
2022/10/26 11:46:03;;;;;;;0.00;0.00;;;;;;;15.67;100.00;101576.53;10523555;28;20015;-80
2022/10/26 11:51:04;;;;;;;0.10;0.10;;;;;;;15.67;100.00;101571.16;10518234;28;20032;-80
2022/10/26 11:56:18;;;;;;;0.10;0.10;;;;;;;15.71;100.00;101567.16;10512885;28;20035;-80
2022/10/26 12:01:19;;;;;;;0.08;0.08;;;;;;;15.78;100.00;101561.91;10508586;28;20016;-80
2022/10/26 12:06:25;;;;;;;0.00;0.00;;;;;;;15.84;100.00;101564.72;10525179;28;20288;-80
2022/10/26 12:11:36;;;;;;;0.00;0.00;;;;;;;15.89;100.00;101572.25;10507268;28;20024;-80
2022/10/26 12:17:05;;;;;;;0.10;0.10;;;;;;;15.95;100.00;101565.34;10508317;28;20031;-80
2022/10/26 12:22:12;;;;;;;0.10;0.10;;;;;;;16.03;100.00;101579.59;10489488;28;20067;-79
2022/10/26 12:27:29;;;;;;;0.10;0.10;;;;;;;16.20;100.00;101571.41;10530775;28;20055;-80
2022/10/26 12:32:29;;;;;;;0.10;0.10;;;;;;;16.33;100.00;101576.19;10531082;28;20031;-80
2022/10/26 12:37:31;;;;;;;0.10;0.10;;;;;;;16.37;100.00;101577.50;10529104;28;20035;-80
2022/10/26 12:42:40;;;;;;;0.10;0.10;;;;;;;16.40;100.00;101575.28;10533179;28;20021;-80
2022/10/26 12:47:40;;;;;;;0.00;0.00;;;;;;;16.47;100.00;101570.88;10519399;28;20071;-80
2022/10/26 12:52:48;;;;;;;0.00;0.00;;;;;;;16.57;100.00;101567.94;10518683;22;20068;-78
2022/10/26 12:58:07;;;;;;;0.00;0.00;;;;;;;16.62;100.00;101576.31;10544709;28;20224;-77
2022/10/26 13:03:33;;;;;;;0.00;0.00;;;;;;;16.60;100.00;101577.50;10545695;28;20050;-77
2022/10/26 13:08:47;;;;;;;0.00;0.00;;;;;;;16.65;100.00;101573.25;10545901;28;20027;-78
2022/10/26 13:13:56;;;;;;;0.00;0.00;;;;;;;16.75;100.00;101570.31;10545713;28;20044;-79
2022/10/26 13:18:57;;;;;;;0.10;0.10;;;;;;;16.68;100.00;101570.19;10526661;28;20030;-78
2022/10/26 13:24:05;;;;;;;0.00;0.00;;;;;;;16.64;100.00;101559.97;10502951;28;20024;-78
2022/10/26 13:29:09;;;;;;;0.00;0.00;;;;;;;16.60;100.00;101551.44;10513263;28;20375;-78
2022/10/26 13:34:15;;;;;;;0.00;0.00;;;;;;;16.63;100.00;101561.84;10507004;28;20060;-77
2022/10/26 13:39:20;;;;;;;0.10;0.10;;;;;;;16.64;100.00;101568.91;10503216;28;20066;-78
2022/10/26 13:44:27;;;;;;;0.08;0.08;;;;;;;16.58;100.00;101566.94;10503204;28;20062;-78
2022/10/26 13:49:33;;;;;;;0.00;0.00;;;;;;;16.51;100.00;101564.13;10523005;28;20031;-77
2022/10/26 13:54:43;;;;;;;0.00;0.00;;;;;;;16.41;100.00;101563.53;10511607;28;20016;-77
2022/10/26 13:59:44;;;;;;;0.10;0.10;;;;;;;16.36;100.00;101560.53;10501192;28;20036;-79
2022/10/26 14:04:47;;;;;;;0.10;0.10;;;;;;;16.40;100.00;101561.84;10504812;28;20103;-78
2022/10/26 14:09:53;;;;;;;0.00;0.00;;;;;;;16.47;100.00;101564.69;10511144;28;20031;-78
2022/10/26 14:15:01;;;;;;;0.00;0.00;;;;;;;16.53;100.00;101580.91;10532221;28;20556;-78
2022/10/26 14:20:03;;;;;;;0.10;0.10;;;;;;;16.58;100.00;101584.91;10521187;28;20028;-77
2022/10/26 14:25:21;;;;;;;0.00;0.00;;;;;;;16.55;100.00;101587.97;10517142;28;20024;-78
2022/10/26 14:30:24;;;;;;;0.00;0.00;;;;;;;16.53;100.00;101599.75;10544242;28;20044;-78
2022/10/26 14:35:29;;;;;;;0.00;0.00;;;;;;;16.50;100.00;101592.03;10513621;28;20055;-78
2022/10/26 14:40:33;;;;;;;0.00;0.00;;;;;;;16.39;100.00;101595.13;10545876;28;20031;-78
2022/10/26 14:45:37;;;;;;;0.00;0.00;;;;;;;16.32;100.00;101604.09;10528472;28;20457;-78
2022/10/26 14:50:40;;;;;;;0.10;0.10;;;;;;;16.19;100.00;101610.06;10517033;28;20453;-78
2022/10/26 14:55:49;;;;;;;0.00;0.00;;;;;;;16.04;100.00;101609.97;10537347;28;20367;-78
2022/10/26 15:01:15;;;;;;;0.00;0.00;;;;;;;15.83;100.00;101619.47;10512632;28;20013;-77
2022/10/26 15:06:45;;;;;;;0.00;0.00;;;;;;;15.61;100.00;101617.50;10492224;28;20024;-77
2022/10/26 15:11:45;;;;;;;0.00;0.00;;;;;;;15.43;100.00;101627.63;10516295;28;20060;-77
2022/10/26 15:16:53;;;;;;;0.10;0.10;;;;;;;15.31;100.00;101628.00;10493875;28;20052;-77
2022/10/26 15:21:54;;;;;;;0.10;0.10;;;;;;;15.20;100.00;101616.78;10493519;28;20707;-77
2022/10/26 15:26:55;;;;;;;0.10;0.10;;;;;;;15.06;100.00;101615.59;10504409;28;20012;-77
2022/10/26 15:32:00;;;;;;;0.10;0.10;;;;;;;14.90;100.00;101622.66;10529029;28;20035;-77
2022/10/26 15:37:00;;;;;;;0.10;0.10;;;;;;;14.75;100.00;101629.72;10486578;28;20025;-77
2022/10/26 15:42:00;;;;;;;0.00;0.00;;;;;;;14.61;100.00;101622.31;10529503;28;20299;-77
2022/10/26 15:47:01;;;;;;;0.05;0.05;;;;;;;14.49;100.00;101625.28;10481009;28;20502;-77
2022/10/26 15:52:01;;;;;;;0.10;0.10;;;;;;;14.42;100.00;101628.78;10500036;28;20060;-77
2022/10/26 15:57:02;;;;;;;0.00;0.00;;;;;;;14.32;100.00;101636.97;10494688;28;20024;-76
2022/10/26 16:02:14;;;;;;;0.10;0.10;;;;;;;14.19;100.00;101625.88;10501867;28;20111;-77
2022/10/26 16:07:15;;;;;;;0.10;0.10;;;;;;;14.03;100.00;101645.44;10505138;28;20111;-77
2022/10/26 16:12:15;;;;;;;0.10;0.10;;;;;;;13.92;100.00;101656.44;10538399;28;20476;-77
2022/10/26 16:17:15;;;;;;;0.10;0.10;;;;;;;13.77;100.00;101649.00;10527664;28;20107;-77
2022/10/26 16:22:16;;;;;;;0.10;0.10;;;;;;;13.65;100.00;101657.47;10514396;28;20517;-77
2022/10/26 16:27:16;;;;;;;0.08;0.08;;;;;;;13.51;100.00;101651.72;10503060;28;20031;-77
2022/10/26 16:32:16;;;;;;;0.10;0.10;;;;;;;13.43;100.00;101654.31;10476558;28;20032;-77
2022/10/26 16:37:16;;;;;;;0.10;0.10;;;;;;;13.33;100.00;101657.13;10492482;28;20032;-77
2022/10/26 16:42:17;;;;;;;0.10;0.10;;;;;;;13.21;100.00;101671.72;10496653;28;20104;-77
2022/10/26 16:47:18;;;;;;;0.10;0.10;;;;;;;13.09;100.00;101676.47;10498327;28;20095;-77
2022/10/26 16:52:18;;;;;;;0.10;0.10;;;;;;;12.98;100.00;101683.91;10510045;28;20498;-77
2022/10/26 16:57:19;;;;;;;0.10;0.10;;;;;;;12.89;100.00;101699.03;10506431;28;20020;-77
2022/10/26 17:02:20;;;;;;;0.10;0.10;;;;;;;12.79;100.00;101696.41;10506432;28;20370;-77
2022/10/26 17:07:20;;;;;;;0.10;0.10;;;;;;;12.74;100.00;101700.53;10538536;28;20355;-77
2022/10/26 17:12:20;;;;;;;0.10;0.10;;;;;;;12.68;100.00;101712.66;10537208;28;20123;-77
2022/10/26 17:17:21;;;;;;;0.10;0.10;;;;;;;12.67;100.00;101716.34;10534494;28;20474;-76
2022/10/26 17:22:21;;;;;;;0.00;0.00;;;;;;;12.70;100.00;101721.38;10492382;28;20263;-75
2022/10/26 17:27:21;;;;;;;0.10;0.10;;;;;;;12.80;100.00;101727.53;10492412;28;20024;-75
2022/10/26 17:32:22;;;;;;;0.00;0.00;;;;;;;12.89;100.00;101747.16;10473174;28;20012;-75
2022/10/26 17:37:22;;;;;;;0.10;0.10;;;;;;;12.98;100.00;101753.44;10489978;28;20459;-75
2022/10/26 17:42:23;;;;;;;0.00;0.00;;;;;;;12.99;100.00;101761.28;10534744;28;20054;-75
2022/10/26 17:47:23;;;;;;;0.03;0.03;;;;;;;13.07;100.00;101768.56;10533852;28;20020;-75
2022/10/26 17:52:24;;;;;;;0.10;0.10;;;;;;;13.10;100.00;101770.94;10524969;28;20395;-75
2022/10/26 17:57:24;;;;;;;0.10;0.10;;;;;;;13.09;100.00;101772.78;10511288;28;20390;-75
2022/10/26 18:02:24;;;;;;;0.00;0.00;;;;;;;13.05;100.00;101787.44;10492457;28;20122;-75
2022/10/26 18:07:25;;;;;;;0.10;0.10;;;;;;;13.05;100.00;101800.78;10473221;28;20028;-75
2022/10/26 18:12:25;;;;;;;0.10;0.10;;;;;;;12.99;100.00;101792.53;10495593;28;20019;-75
2022/10/26 18:17:25;;;;;;;0.10;0.10;;;;;;;12.90;100.00;101808.50;10497362;28;20024;-75
2022/10/26 18:22:25;;;;;;;0.10;0.10;;;;;;;12.84;100.00;101809.09;10481599;28;20081;-75
2022/10/26 18:27:26;;;;;;;0.10;0.10;;;;;;;12.76;100.00;101810.84;10489570;28;20111;-75
2022/10/26 18:32:26;;;;;;;0.10;0.10;;;;;;;12.69;100.00;101821.28;10489564;28;20071;-75
2022/10/26 18:37:26;;;;;;;0.10;0.10;;;;;;;12.60;100.00;101833.72;10489712;28;20365;-75
2022/10/26 18:42:27;;;;;;;0.00;0.00;;;;;;;12.53;100.00;101837.94;10489461;28;20024;-75
2022/10/26 18:47:31;;;;;;;0.10;0.10;;;;;;;12.52;100.00;101841.63;10489208;28;20016;-75
2022/10/26 18:52:32;;;;;;;0.00;0.00;;;;;;;12.50;100.00;101842.75;10490324;28;20104;-75
2022/10/26 18:57:32;;;;;;;0.10;0.10;;;;;;;12.53;100.00;101851.31;10530177;28;20131;-75
2022/10/26 19:02:32;;;;;;;0.10;0.10;;;;;;;12.61;100.00;101858.63;10530479;28;20026;-75
2022/10/26 19:07:33;;;;;;;0.10;0.10;;;;;;;12.67;100.00;101860.69;10529919;28;20324;-75
2022/10/26 19:12:33;;;;;;;0.10;0.10;;;;;;;12.71;100.00;101871.91;10528411;28;20016;-75
2022/10/26 19:17:33;;;;;;;0.10;0.10;;;;;;;12.62;100.00;101863.81;10527880;28;20254;-75
2022/10/26 19:22:34;;;;;;;0.10;0.10;;;;;;;12.57;100.00;101875.94;10503823;28;20066;-75
2022/10/26 19:27:34;;;;;;;0.10;0.10;;;;;;;12.42;100.00;101879.09;10495592;28;20019;-75
2022/10/26 19:32:34;;;;;;;0.10;0.10;;;;;;;12.34;100.00;101886.97;10487852;28;20226;-75
2022/10/26 19:37:35;;;;;;;0.10;0.10;;;;;;;12.25;100.00;101901.22;10487333;28;20044;-75
2022/10/26 19:42:35;;;;;;;0.10;0.10;;;;;;;12.17;100.00;101885.03;10476307;28;20123;-75
2022/10/26 19:47:35;;;;;;;0.10;0.10;;;;;;;12.09;100.00;101904.44;10514965;22;20052;-77
2022/10/26 19:52:35;;;;;;;0.10;0.10;;;;;;;12.01;100.00;101893.63;10516449;28;20061;-78
2022/10/26 19:57:36;;;;;;;0.00;0.00;;;;;;;11.89;100.00;101903.63;10460104;28;20032;-77
2022/10/26 20:02:36;;;;;;;0.10;0.10;;;;;;;11.84;100.00;101905.00;10471389;28;20071;-78
2022/10/26 20:07:36;;;;;;;0.10;0.10;;;;;;;11.80;100.00;101912.44;10474748;28;20104;-78
2022/10/26 20:12:37;;;;;;;0.10;0.10;;;;;;;11.75;100.00;101920.91;10432801;28;20446;-78
2022/10/26 20:17:37;;;;;;;0.10;0.10;;;;;;;11.69;100.00;101918.78;10462009;28;20379;-78
2022/10/26 20:22:37;;;;;;;0.10;0.10;;;;;;;11.65;100.00;101930.72;10485597;28;20494;-78
2022/10/26 20:27:40;;;;;;;0.10;0.10;;;;;;;11.65;100.00;101933.38;10504935;28;20020;-78
2022/10/26 20:32:40;;;;;;;0.00;0.00;;;;;;;11.61;100.00;101934.66;10505114;28;20158;-78
2022/10/26 20:37:41;;;;;;;0.10;0.10;;;;;;;11.54;100.00;101933.50;10481928;28;20097;-78
2022/10/26 20:42:42;;;;;;;0.10;0.10;;;;;;;11.47;100.00;101953.72;10468760;28;20056;-78
2022/10/26 20:47:42;;;;;;;0.10;0.10;;;;;;;11.46;100.00;101960.03;10462834;28;20468;-78
2022/10/26 20:52:42;;;;;;;0.08;0.08;;;;;;;11.34;100.00;101956.63;10459967;28;20387;-78
2022/10/26 20:57:53;;;;;;;0.10;0.10;;;;;;;11.30;100.00;101957.88;10488002;28;20025;-78
2022/10/26 21:02:53;;;;;;;0.10;0.10;;;;;;;11.24;100.00;101961.94;10481867;28;20021;-77
2022/10/26 21:07:53;;;;;;;0.10;0.10;;;;;;;11.21;100.00;101966.72;10470693;28;20306;-78
2022/10/26 21:12:54;;;;;;;0.10;0.10;;;;;;;11.16;100.00;101969.78;10450950;28;20024;-78
2022/10/26 21:17:54;;;;;;;0.10;0.10;;;;;;;11.13;100.00;101975.38;10502825;28;20031;-78
2022/10/26 21:22:54;;;;;;;0.10;0.10;;;;;;;11.03;100.00;101988.69;10475924;28;20141;-78
2022/10/26 21:27:56;;;;;;;0.10;0.10;;;;;;;11.04;100.00;101989.50;10468369;28;20262;-78
2022/10/26 21:32:56;;;;;;;0.10;0.10;;;;;;;11.02;100.00;101988.78;10488716;28;20029;-77
2022/10/26 21:37:56;;;;;;;0.10;0.10;;;;;;;11.01;100.00;101979.13;10486346;28;20040;-78
2022/10/26 21:42:56;;;;;;;0.10;0.10;;;;;;;10.99;100.00;101991.72;10485354;28;20039;-78
2022/10/26 21:47:57;;;;;;;0.10;0.10;;;;;;;10.94;100.00;101991.28;10461591;28;20123;-77
2022/10/26 21:52:57;;;;;;;0.00;0.00;;;;;;;10.93;100.00;101994.94;10453962;28;20013;-77
2022/10/26 21:57:57;;;;;;;0.10;0.10;;;;;;;10.92;100.00;101993.25;10467194;28;20036;-78
2022/10/26 22:02:57;;;;;;;0.10;0.10;;;;;;;10.86;100.00;101990.13;10464666;28;20025;-77
2022/10/26 22:07:58;;;;;;;0.10;0.10;;;;;;;10.85;100.00;101999.13;10483803;28;20025;-77
2022/10/26 22:12:58;;;;;;;0.10;0.10;;;;;;;10.87;100.00;101991.81;10451938;28;20490;-78
2022/10/26 22:17:58;;;;;;;0.00;0.00;;;;;;;10.88;100.00;101998.00;10460701;28;20538;-78
2022/10/26 22:22:59;;;;;;;0.10;0.10;;;;;;;10.90;100.00;102006.69;10477515;28;20255;-78
2022/10/26 22:27:59;;;;;;;0.10;0.10;;;;;;;10.90;100.00;102000.53;10469349;28;20017;-78
2022/10/26 22:32:59;;;;;;;0.00;0.00;;;;;;;10.88;100.00;101993.53;10481642;28;20099;-77
2022/10/26 22:38:00;;;;;;;0.00;0.00;;;;;;;10.87;100.00;102002.47;10476412;28;20021;-78
2022/10/26 22:43:00;;;;;;;0.10;0.10;;;;;;;10.90;100.00;102003.19;10497658;28;20028;-78
2022/10/26 22:48:00;;;;;;;0.10;0.10;;;;;;;10.93;100.00;102010.94;10464244;28;20025;-77
2022/10/26 22:53:00;;;;;;;0.10;0.10;;;;;;;10.93;100.00;102010.94;10482017;28;20747;-77
2022/10/26 22:58:01;;;;;;;0.10;0.10;;;;;;;10.88;100.00;102017.50;10463849;28;20395;-77
2022/10/26 23:03:01;;;;;;;0.10;0.10;;;;;;;10.92;100.00;102025.25;10456310;28;20020;-77
2022/10/26 23:08:01;;;;;;;0.10;0.10;;;;;;;10.83;100.00;102038.38;10459096;28;20108;-77